createdAt,value
2023-03-17T00:01:55.804Z,6.30
2023-03-17T00:04:24.494Z,6.24
2023-03-17T00:06:51.728Z,6.20
2023-03-17T00:09:19.780Z,6.10
2023-03-17T00:11:46.399Z,6.01
2023-03-17T00:14:13.660Z,5.96
2023-03-17T00:16:51.026Z,5.88
2023-03-17T00:19:23.503Z,5.84
2023-03-17T00:21:50.141Z,5.87
2023-03-17T00:24:17.066Z,5.82
2023-03-17T00:26:44.118Z,5.90
2023-03-17T00:29:10.887Z,5.94
2023-03-17T00:31:38.903Z,5.83
2023-03-17T00:34:06.702Z,5.79
2023-03-17T00:36:34.491Z,5.75
2023-03-17T00:39:03.496Z,5.78
2023-03-17T00:41:32.846Z,5.82
2023-03-17T00:43:59.246Z,5.75
2023-03-17T00:46:31.105Z,5.74
2023-03-17T00:48:57.869Z,5.70
2023-03-17T00:51:24.356Z,5.74
2023-03-17T00:53:50.783Z,5.68
2023-03-17T00:56:19.407Z,5.69
2023-03-17T00:58:47.462Z,5.74
2023-03-17T01:01:15.941Z,5.77
2023-03-17T01:03:42.548Z,5.72
2023-03-17T01:06:12.739Z,5.64
2023-03-17T01:08:41.119Z,5.63
2023-03-17T01:11:18.656Z,5.59
2023-03-17T01:13:47.081Z,5.56
2023-03-17T01:16:15.451Z,5.58
2023-03-17T01:18:42.162Z,5.60
2023-03-17T01:21:09.002Z,5.69
2023-03-17T01:23:35.771Z,5.69
2023-03-17T01:26:03.196Z,5.83
2023-03-17T01:28:29.661Z,5.97
2023-03-17T01:30:56.707Z,5.93
2023-03-17T01:33:23.266Z,6.04
2023-03-17T01:35:50.250Z,6.02
2023-03-17T01:38:17.422Z,5.92
2023-03-17T01:40:49.649Z,6.02
2023-03-17T01:43:21.472Z,6.13
2023-03-17T01:46:09.756Z,6.20
2023-03-17T01:48:52.962Z,6.32
2023-03-17T01:51:43.090Z,6.24
2023-03-17T01:54:14.176Z,6.32
2023-03-17T01:56:43.803Z,6.49
2023-03-17T01:59:16.468Z,6.30
2023-03-17T02:01:47.443Z,6.38
2023-03-17T02:04:14.227Z,6.30
2023-03-17T02:06:55.188Z,6.29
2023-03-17T02:09:23.886Z,6.26
2023-03-17T02:11:50.626Z,6.27
2023-03-17T02:14:17.023Z,6.38
2023-03-17T02:16:45.090Z,6.26
2023-03-17T02:19:11.762Z,6.18
2023-03-17T02:21:40.857Z,6.13
2023-03-17T02:24:24.488Z,6.17
2023-03-17T02:26:53.925Z,6.14
2023-03-17T02:29:22.661Z,6.10
2023-03-17T02:31:49.584Z,6.01
2023-03-17T02:34:15.966Z,5.94
2023-03-17T02:36:42.590Z,5.87
2023-03-17T02:39:09.132Z,5.83
2023-03-17T02:41:36.241Z,5.83
2023-03-17T02:44:02.656Z,5.82
2023-03-17T02:46:29.249Z,5.84
2023-03-17T02:48:59.210Z,5.86
2023-03-17T02:51:25.619Z,5.88
2023-03-17T02:53:52.033Z,5.90
2023-03-17T02:56:18.439Z,5.88
2023-03-17T02:58:44.843Z,5.96
2023-03-17T03:01:11.938Z,5.99
2023-03-17T03:03:38.579Z,6.11
2023-03-17T03:06:05.402Z,6.18
2023-03-17T03:08:32.050Z,6.35
2023-03-17T03:11:00.266Z,6.37
2023-03-17T03:13:26.978Z,6.33
2023-03-17T03:15:53.543Z,6.36
2023-03-17T03:18:20.146Z,6.25
2023-03-17T03:20:47.172Z,6.28
2023-03-17T03:23:14.659Z,6.39
2023-03-17T03:25:41.812Z,6.41
2023-03-17T03:28:08.931Z,6.36
2023-03-17T03:30:37.124Z,6.35
2023-03-17T03:33:04.104Z,6.32
2023-03-17T03:35:31.238Z,6.24
2023-03-17T03:37:58.335Z,6.11
2023-03-17T03:40:25.611Z,6.07
2023-03-17T03:42:52.013Z,6.02
2023-03-17T03:45:18.915Z,6.00
2023-03-17T03:47:45.574Z,5.98
2023-03-17T03:50:13.239Z,6.00
2023-03-17T03:52:40.797Z,5.99
2023-03-17T03:55:08.072Z,6.01
2023-03-17T03:57:34.937Z,5.96
2023-03-17T04:00:01.727Z,5.92
2023-03-17T04:02:38.469Z,5.92
2023-03-17T04:05:07.162Z,5.86
2023-03-17T04:07:33.587Z,5.80
2023-03-17T04:10:00.130Z,5.73
2023-03-17T04:12:26.529Z,5.69
2023-03-17T04:14:53.190Z,5.70
2023-03-17T04:17:19.655Z,5.78
2023-03-17T04:19:46.328Z,5.64
2023-03-17T04:22:13.326Z,5.56
2023-03-17T04:24:39.859Z,5.47
2023-03-17T04:27:06.441Z,5.39
2023-03-17T04:29:32.894Z,5.32
2023-03-17T04:31:59.712Z,5.30
2023-03-17T04:34:27.221Z,5.28
2023-03-17T04:36:53.926Z,5.24
2023-03-17T04:39:21.081Z,5.30
2023-03-17T04:41:47.514Z,5.34
2023-03-17T04:44:14.101Z,5.39
2023-03-17T04:46:40.503Z,5.55
2023-03-17T04:49:07.064Z,5.48
2023-03-17T04:51:33.805Z,5.45
2023-03-17T04:54:00.901Z,5.40
2023-03-17T04:56:27.381Z,5.52
2023-03-17T04:58:53.816Z,5.55
2023-03-17T05:01:21.639Z,5.60
2023-03-17T05:03:48.340Z,5.58
2023-03-17T05:06:15.182Z,5.58
2023-03-17T05:08:44.743Z,5.51
2023-03-17T05:11:12.544Z,5.41
2023-03-17T05:13:40.991Z,5.27
2023-03-17T05:16:08.513Z,5.15
2023-03-17T05:18:36.116Z,5.13
2023-03-17T05:21:03.440Z,5.12
2023-03-17T05:23:30.131Z,5.04
2023-03-17T05:26:11.375Z,5.01
2023-03-17T05:28:38.136Z,4.99
2023-03-17T05:31:05.303Z,5.01
2023-03-17T05:33:31.735Z,4.98
2023-03-17T05:35:58.205Z,4.93
2023-03-17T05:38:24.998Z,4.91
2023-03-17T05:40:52.564Z,4.92
2023-03-17T05:43:19.135Z,4.94
2023-03-17T05:45:47.180Z,4.94
2023-03-17T05:48:13.791Z,4.93
2023-03-17T05:50:41.774Z,4.90
2023-03-17T05:53:08.702Z,4.86
2023-03-17T05:55:35.628Z,4.85
2023-03-17T05:58:04.690Z,4.87
2023-03-17T06:00:31.816Z,4.85
2023-03-17T06:02:58.702Z,4.82
2023-03-17T06:05:25.207Z,4.83
2023-03-17T06:08:01.166Z,4.85
2023-03-17T06:10:28.814Z,4.88
2023-03-17T06:12:55.648Z,4.93
2023-03-17T06:15:22.059Z,4.99
2023-03-17T06:17:48.469Z,4.99
2023-03-17T06:20:15.721Z,5.05
2023-03-17T06:23:00.417Z,5.08
2023-03-17T06:25:29.494Z,5.08
2023-03-17T06:27:56.233Z,5.23
2023-03-17T06:30:22.662Z,5.40
2023-03-17T06:32:49.209Z,5.75
2023-03-17T06:35:16.134Z,5.84
2023-03-17T06:37:42.709Z,5.97
2023-03-17T06:40:10.176Z,6.16
2023-03-17T06:42:37.050Z,6.29
2023-03-17T06:45:03.852Z,6.20
2023-03-17T06:47:30.638Z,6.35
2023-03-17T06:49:57.058Z,6.35
2023-03-17T06:52:23.490Z,6.47
2023-03-17T06:54:49.878Z,6.55
2023-03-17T06:57:16.617Z,6.59
2023-03-17T06:59:42.996Z,6.60
2023-03-17T07:02:11.704Z,6.70
2023-03-17T07:04:38.449Z,6.74
2023-03-17T07:07:05.887Z,6.80
2023-03-17T07:09:34.377Z,6.86
2023-03-17T07:12:07.252Z,6.85
2023-03-17T07:14:36.590Z,6.99
2023-03-17T07:17:04.768Z,6.97
2023-03-17T07:19:31.870Z,7.03
2023-03-17T07:21:58.619Z,7.04
2023-03-17T07:24:25.949Z,7.13
2023-03-17T07:26:52.880Z,7.27
2023-03-17T07:29:19.534Z,7.33
2023-03-17T07:31:46.184Z,7.31
2023-03-17T07:34:13.167Z,7.42
2023-03-17T07:36:39.919Z,7.68
2023-03-17T07:39:07.225Z,7.74
2023-03-17T07:41:34.040Z,7.81
2023-03-17T07:44:01.056Z,7.83
2023-03-17T07:46:27.717Z,7.87
2023-03-17T07:48:54.194Z,8.08
2023-03-17T07:51:25.261Z,8.12
2023-03-17T07:53:51.897Z,8.16
2023-03-17T07:56:18.344Z,8.28
2023-03-17T07:58:44.906Z,8.38
2023-03-17T08:01:11.393Z,8.33
2023-03-17T08:03:41.323Z,8.39
2023-03-17T08:06:08.786Z,8.54
2023-03-17T08:08:35.984Z,8.58
2023-03-17T08:11:05.030Z,8.59
2023-03-17T08:13:32.699Z,8.68
2023-03-17T08:15:59.251Z,8.83
2023-03-17T08:18:25.778Z,8.83
2023-03-17T08:20:52.397Z,8.81
2023-03-17T08:23:19.674Z,8.89
2023-03-17T08:25:47.573Z,9.01
2023-03-17T08:28:15.287Z,9.02
2023-03-17T08:30:43.054Z,9.19
2023-03-17T08:33:09.895Z,9.34
2023-03-17T08:35:37.397Z,9.35
2023-03-17T08:38:04.612Z,9.44
2023-03-17T08:40:31.635Z,9.58
2023-03-17T08:42:58.284Z,9.56
2023-03-17T08:45:24.834Z,9.57
2023-03-17T08:47:51.486Z,9.46
2023-03-17T08:50:21.877Z,9.56
2023-03-17T08:52:48.984Z,9.58
2023-03-17T08:55:16.467Z,9.57
2023-03-17T08:57:44.643Z,9.92
2023-03-17T09:00:13.965Z,9.88
2023-03-17T09:02:43.035Z,10.04
2023-03-17T09:05:11.883Z,10.04
2023-03-17T09:07:38.490Z,10.07
2023-03-17T09:10:07.159Z,10.06
2023-03-17T09:12:34.352Z,10.11
2023-03-17T09:15:01.783Z,10.17
2023-03-17T09:17:28.797Z,10.50
2023-03-17T09:19:55.282Z,10.42
2023-03-17T09:22:21.716Z,10.42
2023-03-17T09:24:48.182Z,10.72
2023-03-17T09:27:14.563Z,10.71
2023-03-17T09:29:42.008Z,10.82
2023-03-17T09:32:08.723Z,10.83
2023-03-17T09:34:35.977Z,10.95
2023-03-17T09:37:02.496Z,11.13
2023-03-17T09:39:28.958Z,11.29
2023-03-17T09:42:19.265Z,11.20
2023-03-17T09:44:45.867Z,11.29
2023-03-17T09:47:42.669Z,11.37
2023-03-17T09:50:15.822Z,11.38
2023-03-17T09:52:42.935Z,11.58
2023-03-17T09:55:20.072Z,11.53
2023-03-17T09:57:47.318Z,11.64
2023-03-17T10:00:20.676Z,11.64
2023-03-17T10:02:47.269Z,11.54
2023-03-17T10:05:28.869Z,11.56
2023-03-17T10:08:22.720Z,11.70
2023-03-17T10:10:59.029Z,11.83
2023-03-17T10:14:04.395Z,12.05
2023-03-17T10:16:54.915Z,12.10
2023-03-17T10:19:28.313Z,12.23
2023-03-17T10:22:04.672Z,12.27
2023-03-17T10:24:33.902Z,12.37
2023-03-17T10:27:06.548Z,12.48
2023-03-17T10:29:33.177Z,12.58
2023-03-17T10:31:59.742Z,12.53
2023-03-17T10:34:32.664Z,12.52
2023-03-17T10:37:19.878Z,12.61
2023-03-17T10:39:50.392Z,12.62
2023-03-17T10:42:22.342Z,12.77
2023-03-17T10:45:12.380Z,12.78
2023-03-17T10:47:40.788Z,12.93
2023-03-17T10:50:40.958Z,13.04
2023-03-17T10:53:20.343Z,13.13
2023-03-17T10:55:52.531Z,13.36
2023-03-17T10:58:23.466Z,13.45
2023-03-17T11:01:08.524Z,13.50
2023-03-17T11:03:39.923Z,13.64
2023-03-17T11:06:14.334Z,13.62
2023-03-17T11:08:47.219Z,13.59
2023-03-17T11:11:25.985Z,13.44
2023-03-17T11:14:10.460Z,13.37
2023-03-17T11:16:54.180Z,13.48
2023-03-17T11:19:39.624Z,13.73
2023-03-17T11:22:26.777Z,13.92
2023-03-17T11:25:11.702Z,14.11
2023-03-17T11:28:08.001Z,14.16
2023-03-17T11:30:37.017Z,14.40
2023-03-17T11:33:24.879Z,14.46
2023-03-17T11:36:27.777Z,14.44
2023-03-17T11:39:00.691Z,14.39
2023-03-17T11:41:50.970Z,14.29
2023-03-17T11:44:55.070Z,14.34
2023-03-17T11:47:49.752Z,14.34
2023-03-17T11:50:27.816Z,14.43
2023-03-17T11:53:09.655Z,14.42
2023-03-17T11:55:50.242Z,14.56
2023-03-17T11:58:33.489Z,14.59
2023-03-17T12:01:02.073Z,14.76
2023-03-17T12:03:34.520Z,14.77
2023-03-17T12:06:05.997Z,14.87
2023-03-17T12:08:46.623Z,14.87
2023-03-17T12:11:17.962Z,14.91
2023-03-17T12:13:49.601Z,14.91
2023-03-17T12:16:26.868Z,15.01
2023-03-17T12:19:31.359Z,15.00
2023-03-17T12:22:00.897Z,15.07
2023-03-17T12:24:47.653Z,15.04
2023-03-17T12:27:20.066Z,15.15
2023-03-17T12:29:52.497Z,15.32
2023-03-17T12:32:19.717Z,15.58
2023-03-17T12:34:57.342Z,15.52
2023-03-17T12:37:27.575Z,15.70
2023-03-17T12:40:00.734Z,15.86
2023-03-17T12:42:35.561Z,15.74
2023-03-17T12:45:28.393Z,15.62
2023-03-17T12:48:13.242Z,15.54
2023-03-17T12:51:06.398Z,15.48
2023-03-17T12:53:40.407Z,15.41
2023-03-17T12:56:36.645Z,15.32
2023-03-17T12:59:06.723Z,15.23
2023-03-17T13:01:34.698Z,15.21
2023-03-17T13:04:20.498Z,15.23
2023-03-17T13:07:12.937Z,15.15
2023-03-17T13:09:45.159Z,15.36
2023-03-17T13:12:55.692Z,15.24
2023-03-17T13:15:25.051Z,15.37
2023-03-17T13:18:13.489Z,15.48
2023-03-17T13:20:52.649Z,15.61
2023-03-17T13:23:23.955Z,15.54
2023-03-17T13:25:53.737Z,15.54
2023-03-17T13:28:41.433Z,15.68
2023-03-17T13:31:20.242Z,15.79
2023-03-17T13:33:53.161Z,16.10
2023-03-17T13:36:28.681Z,15.91
2023-03-17T13:39:20.504Z,15.74
2023-03-17T13:42:15.738Z,15.85
2023-03-17T13:45:07.894Z,15.90
2023-03-17T13:47:38.424Z,15.72
2023-03-17T13:50:23.484Z,15.71
2023-03-17T13:53:01.714Z,15.67
2023-03-17T13:55:34.973Z,15.87
2023-03-17T13:58:12.132Z,15.96
2023-03-17T14:00:41.244Z,15.77
2023-03-17T14:03:17.466Z,15.71
2023-03-17T14:05:49.911Z,15.71
2023-03-17T14:08:36.777Z,15.66
2023-03-17T14:11:34.965Z,15.62
2023-03-17T14:14:32.460Z,15.81
2023-03-17T14:17:25.112Z,15.74
2023-03-17T14:20:06.983Z,15.69
2023-03-17T14:22:45.254Z,15.69
2023-03-17T14:25:21.442Z,15.68
2023-03-17T14:27:53.033Z,15.72
2023-03-17T14:30:23.693Z,15.70
2023-03-17T14:33:14.197Z,15.64
2023-03-17T14:35:43.037Z,15.61
2023-03-17T14:38:23.053Z,15.47
2023-03-17T14:40:50.672Z,15.46
2023-03-17T14:43:17.604Z,15.46
2023-03-17T14:46:00.615Z,15.42
2023-03-17T14:48:37.781Z,15.43
2023-03-17T14:51:16.012Z,15.39
2023-03-17T14:53:46.176Z,15.41
2023-03-17T14:56:13.676Z,15.43
2023-03-17T14:58:45.922Z,15.49
2023-03-17T15:01:32.573Z,15.48
2023-03-17T15:04:07.158Z,15.44
2023-03-17T15:06:36.251Z,15.42
2023-03-17T15:09:17.078Z,15.44
2023-03-17T15:11:45.109Z,15.44
2023-03-17T15:14:21.246Z,15.38
2023-03-17T15:16:51.613Z,15.37
2023-03-17T15:19:44.391Z,15.31
2023-03-17T15:22:30.120Z,15.28
2023-03-17T15:25:02.329Z,15.30
2023-03-17T15:27:30.557Z,15.17
2023-03-17T15:29:57.463Z,15.12
2023-03-17T15:32:26.108Z,15.17
2023-03-17T15:34:54.777Z,15.03
2023-03-17T15:37:26.944Z,14.99
2023-03-17T15:39:55.093Z,14.87
2023-03-17T15:42:27.692Z,14.79
2023-03-17T15:44:54.722Z,14.73
2023-03-17T15:47:25.122Z,14.77
2023-03-17T15:49:52.173Z,14.70
2023-03-17T15:52:21.701Z,14.67
2023-03-17T15:54:48.722Z,14.59
2023-03-17T15:57:15.604Z,14.56
2023-03-17T15:59:42.107Z,14.50
2023-03-17T16:02:29.084Z,14.55
2023-03-17T16:04:55.774Z,14.52
2023-03-17T16:07:22.835Z,14.60
2023-03-17T16:09:49.336Z,14.58
2023-03-17T16:12:16.071Z,14.43
2023-03-17T16:14:45.770Z,14.35
2023-03-17T16:17:22.000Z,14.24
2023-03-17T16:19:48.706Z,14.22
2023-03-17T16:22:39.811Z,14.15
2023-03-17T16:25:22.750Z,14.12
2023-03-17T16:27:49.328Z,14.02
2023-03-17T16:30:18.052Z,14.00
2023-03-17T16:32:44.649Z,13.99
2023-03-17T16:35:20.865Z,13.96
2023-03-17T16:37:48.192Z,13.94
2023-03-17T16:40:27.041Z,13.93
2023-03-17T16:42:54.572Z,13.90
2023-03-17T16:45:29.440Z,13.88
2023-03-17T16:47:57.169Z,13.89
2023-03-17T16:50:26.716Z,13.90
2023-03-17T16:52:53.394Z,13.90
2023-03-17T16:55:21.474Z,13.82
2023-03-17T16:57:50.549Z,13.90
2023-03-17T17:00:19.589Z,13.82
2023-03-17T17:02:49.171Z,13.80
2023-03-17T17:05:24.851Z,13.79
2023-03-17T17:07:52.332Z,13.68
2023-03-17T17:10:21.632Z,13.57
2023-03-17T17:12:49.007Z,13.48
2023-03-17T17:15:18.219Z,13.35
2023-03-17T17:17:48.736Z,13.28
2023-03-17T17:20:17.854Z,13.24
2023-03-17T17:22:44.460Z,13.22
2023-03-17T17:25:12.082Z,13.18
2023-03-17T17:27:41.797Z,13.15
2023-03-17T17:30:12.203Z,13.12
2023-03-17T17:32:39.382Z,13.07
2023-03-17T17:35:07.767Z,13.05
2023-03-17T17:37:35.432Z,13.00
2023-03-17T17:40:02.188Z,12.91
2023-03-17T17:42:28.598Z,12.91
2023-03-17T17:44:55.132Z,12.94
2023-03-17T17:47:21.557Z,12.87
2023-03-17T17:49:47.988Z,12.86
2023-03-17T17:52:14.687Z,12.85
2023-03-17T17:54:41.120Z,12.84
2023-03-17T17:57:07.776Z,12.79
2023-03-17T17:59:34.140Z,12.73
2023-03-17T18:02:01.088Z,12.90
2023-03-17T18:04:27.532Z,12.96
2023-03-17T18:06:54.004Z,12.97
2023-03-17T18:09:20.433Z,13.01
2023-03-17T18:11:47.313Z,12.95
2023-03-17T18:14:13.899Z,12.84
2023-03-17T18:16:41.066Z,12.89
2023-03-17T18:19:09.543Z,12.71
2023-03-17T18:21:36.483Z,12.60
2023-03-17T18:24:04.703Z,12.53
2023-03-17T18:26:32.850Z,12.45
2023-03-17T18:28:59.638Z,12.36
2023-03-17T18:31:31.532Z,12.29
2023-03-17T18:34:04.330Z,12.33
2023-03-17T18:36:31.237Z,12.30
2023-03-17T18:38:57.701Z,12.28
2023-03-17T18:41:25.502Z,12.30
2023-03-17T18:43:52.590Z,12.28
2023-03-17T18:46:19.100Z,12.29
2023-03-17T18:48:45.579Z,12.31
2023-03-17T18:51:12.246Z,12.26
2023-03-17T18:53:39.152Z,12.19
2023-03-17T18:56:06.500Z,12.17
2023-03-17T18:58:33.075Z,12.14
2023-03-17T19:01:01.345Z,12.07
2023-03-17T19:03:29.274Z,12.05
2023-03-17T19:05:56.109Z,12.01
2023-03-17T19:08:22.601Z,12.12
2023-03-17T19:10:49.309Z,12.09
2023-03-17T19:13:16.402Z,12.30
2023-03-17T19:15:42.937Z,12.21
2023-03-17T19:18:09.669Z,12.20
2023-03-17T19:20:36.675Z,12.14
2023-03-17T19:23:07.942Z,12.12
2023-03-17T19:25:36.768Z,12.05
2023-03-17T19:28:04.470Z,11.96
2023-03-17T19:30:31.342Z,11.96
2023-03-17T19:32:57.966Z,11.96
2023-03-17T19:35:24.433Z,11.94
2023-03-17T19:37:51.495Z,11.94
2023-03-17T19:40:17.911Z,11.91
2023-03-17T19:42:44.334Z,11.82
2023-03-17T19:45:11.490Z,11.82
2023-03-17T19:47:38.806Z,11.77
2023-03-17T19:50:07.008Z,11.68
2023-03-17T19:52:33.417Z,11.59
2023-03-17T19:54:59.956Z,11.53
2023-03-17T19:57:29.185Z,11.44
2023-03-17T19:59:55.642Z,11.44
2023-03-17T20:02:22.011Z,11.40
2023-03-17T20:04:49.101Z,11.37
2023-03-17T20:07:15.772Z,11.35
2023-03-17T20:09:44.485Z,11.36
2023-03-17T20:12:11.088Z,11.42
2023-03-17T20:14:37.891Z,11.43
2023-03-17T20:17:04.383Z,11.47
2023-03-17T20:19:31.031Z,11.44
2023-03-17T20:21:58.516Z,11.45
2023-03-17T20:24:26.923Z,11.44
2023-03-17T20:26:56.788Z,11.46
2023-03-17T20:29:23.421Z,11.55
2023-03-17T20:31:49.857Z,11.55
2023-03-17T20:34:16.809Z,11.64
2023-03-17T20:36:43.456Z,11.53
2023-03-17T20:39:14.792Z,11.47
2023-03-17T20:41:41.580Z,11.36
2023-03-17T20:44:08.093Z,11.26
2023-03-17T20:46:34.576Z,11.19
2023-03-17T20:49:01.979Z,11.40
2023-03-17T20:51:28.450Z,11.57
2023-03-17T20:53:56.695Z,11.53
2023-03-17T20:56:24.459Z,11.29
2023-03-17T20:58:53.065Z,11.21
2023-03-17T21:01:21.456Z,11.13
2023-03-17T21:03:49.770Z,10.99
2023-03-17T21:06:16.753Z,10.85
2023-03-17T21:08:45.987Z,10.81
2023-03-17T21:11:17.257Z,10.78
2023-03-17T21:13:44.197Z,10.74
2023-03-17T21:16:23.690Z,10.67
2023-03-17T21:18:51.016Z,10.62
2023-03-17T21:21:18.460Z,10.64
2023-03-17T21:23:46.003Z,10.80
2023-03-17T21:26:14.422Z,10.81
2023-03-17T21:28:42.367Z,10.72
2023-03-17T21:31:10.806Z,10.65
2023-03-17T21:33:38.086Z,10.59
2023-03-17T21:36:05.796Z,10.52
2023-03-17T21:38:32.592Z,10.49
2023-03-17T21:41:18.356Z,10.46
2023-03-17T21:43:47.008Z,10.54
2023-03-17T21:46:14.680Z,10.51
2023-03-17T21:48:41.174Z,10.47
2023-03-17T21:51:08.861Z,10.43
2023-03-17T21:53:35.278Z,10.40
2023-03-17T21:56:01.949Z,10.34
2023-03-17T21:58:28.370Z,10.35
2023-03-17T22:00:54.816Z,10.28
2023-03-17T22:03:21.481Z,10.22
2023-03-17T22:05:48.296Z,10.16
2023-03-17T22:08:15.223Z,10.13
2023-03-17T22:10:41.663Z,10.13
2023-03-17T22:13:08.319Z,10.12
2023-03-17T22:15:35.957Z,10.07
2023-03-17T22:18:02.585Z,10.05
2023-03-17T22:20:30.107Z,10.03
2023-03-17T22:22:56.754Z,10.03
2023-03-17T22:25:23.521Z,10.05
2023-03-17T22:27:49.929Z,10.01
2023-03-17T22:30:16.863Z,10.03
2023-03-17T22:32:43.371Z,10.04
2023-03-17T22:35:11.178Z,10.01
2023-03-17T22:37:38.292Z,9.99
2023-03-17T22:40:06.573Z,9.97
2023-03-17T22:42:33.305Z,9.94
2023-03-17T22:44:59.717Z,10.01
2023-03-17T22:47:26.552Z,9.98
2023-03-17T22:49:52.983Z,9.92
2023-03-17T22:52:19.393Z,9.90
2023-03-17T22:54:45.933Z,9.91
2023-03-17T22:57:12.521Z,9.90
2023-03-17T22:59:39.289Z,9.93
2023-03-17T23:02:06.382Z,9.96
2023-03-17T23:04:33.589Z,9.96
2023-03-17T23:06:59.984Z,9.92
2023-03-17T23:09:29.634Z,9.90
2023-03-17T23:11:56.335Z,9.87
2023-03-17T23:14:23.343Z,9.85
2023-03-17T23:16:51.524Z,9.81
2023-03-17T23:19:18.091Z,9.82
2023-03-17T23:21:44.706Z,9.85
2023-03-17T23:24:11.657Z,9.88
2023-03-17T23:26:38.185Z,9.91
2023-03-17T23:29:08.335Z,9.94
2023-03-17T23:31:35.070Z,9.95
2023-03-17T23:34:03.829Z,10.01
2023-03-17T23:36:30.256Z,10.00
2023-03-17T23:38:56.792Z,9.98
2023-03-17T23:41:23.175Z,9.97
2023-03-17T23:43:49.773Z,9.95
2023-03-17T23:46:16.263Z,9.93
2023-03-17T23:48:43.392Z,9.94
2023-03-17T23:51:12.545Z,9.97
2023-03-17T23:53:42.347Z,9.97
2023-03-17T23:56:11.324Z,9.94
2023-03-17T23:58:38.181Z,9.96
